Time;durP1;ratioP1;P1;durP2;ratioP2;P2;SDS_P1;SDS_P2;PMS_P1;PMS_P2;Temp;Humidity;BMP_temperature;BMP_pressure;BME280_temperature;BME280_humidity;BME280_pressure;Samples;Min_cycle;Max_cycle;Signal;HPM_P1;HPM_P2
2023/07/29 00:00:32;;;;;;;4.68;1.85;;;;;;;;;;4998157;28;20025;-85
2023/07/29 00:02:58;;;;;;;4.55;1.85;;;;;;;;;;5015508;28;20123;-86
2023/07/29 00:05:23;;;;;;;3.95;2.15;;;;;;;;;;5008917;28;20033;-85
2023/07/29 00:07:49;;;;;;;3.58;2.20;;;;;;;;;;4994830;28;20124;-85
2023/07/29 00:10:14;;;;;;;3.20;2.20;;;;;;;;;;5011514;28;20037;-85
2023/07/29 00:12:40;;;;;;;6.05;2.30;;;;;;;;;;5010111;28;20145;-83
2023/07/29 00:15:05;;;;;;;4.47;2.05;;;;;;;;;;5004594;28;20103;-85
2023/07/29 00:17:31;;;;;;;5.38;2.15;;;;;;;;;;5010768;28;20137;-84
2023/07/29 00:19:56;;;;;;;4.03;2.10;;;;;;;;;;5013404;28;20037;-84
2023/07/29 00:22:22;;;;;;;8.50;2.10;;;;;;;;;;5011161;28;20030;-84
2023/07/29 00:24:51;;;;;;;6.85;2.00;;;;;;;;;;5021683;28;20079;-84
2023/07/29 00:27:17;;;;;;;5.25;1.90;;;;;;;;;;5010038;28;20057;-84
2023/07/29 00:29:42;;;;;;;7.15;2.28;;;;;;;;;;5011559;28;20034;-84
2023/07/29 00:32:08;;;;;;;3.70;1.95;;;;;;;;;;5015371;28;20034;-84
2023/07/29 00:34:33;;;;;;;6.20;2.10;;;;;;;;;;5029853;28;20051;-83
2023/07/29 00:36:59;;;;;;;4.70;2.15;;;;;;;;;;5012294;28;20026;-83
2023/07/29 00:39:24;;;;;;;5.65;2.10;;;;;;;;;;5013053;28;20029;-84
2023/07/29 00:41:50;;;;;;;6.63;1.88;;;;;;;;;;4996733;28;20040;-84
2023/07/29 00:44:15;;;;;;;8.38;2.08;;;;;;;;;;4997337;28;20052;-84
2023/07/29 00:46:41;;;;;;;3.28;1.80;;;;;;;;;;5004327;28;20053;-84
2023/07/29 00:49:07;;;;;;;3.15;1.90;;;;;;;;;;4997595;28;20059;-84
2023/07/29 00:51:32;;;;;;;6.97;2.10;;;;;;;;;;5013579;28;20034;-84
2023/07/29 00:53:58;;;;;;;3.47;1.63;;;;;;;;;;5013749;28;20457;-84
2023/07/29 00:56:23;;;;;;;5.43;1.80;;;;;;;;;;5013673;28;20033;-84
2023/07/29 00:58:49;;;;;;;2.35;1.73;;;;;;;;;;5014489;28;20033;-84
2023/07/29 01:01:14;;;;;;;3.00;1.90;;;;;;;;;;4997101;28;20389;-84
2023/07/29 01:03:40;;;;;;;3.47;1.95;;;;;;;;;;5014418;28;20025;-84
2023/07/29 01:06:07;;;;;;;3.45;1.95;;;;;;;;;;4988308;28;20092;-84
2023/07/29 01:08:45;;;;;;;5.80;1.95;;;;;;;;;;5012136;28;20026;-83
2023/07/29 01:11:12;;;;;;;5.00;2.10;;;;;;;;;;4993976;28;20038;-84
2023/07/29 01:13:41;;;;;;;2.67;1.70;;;;;;;;;;5014540;28;20050;-84
2023/07/29 01:16:09;;;;;;;4.13;1.88;;;;;;;;;;4996825;28;20135;-84
2023/07/29 01:18:35;;;;;;;3.20;1.80;;;;;;;;;;5029491;28;20018;-84
2023/07/29 01:21:04;;;;;;;7.32;2.33;;;;;;;;;;4996902;28;20034;-84
2023/07/29 01:23:51;;;;;;;6.85;2.00;;;;;;;;;;5014827;28;20052;-84
2023/07/29 01:26:16;;;;;;;4.60;1.90;;;;;;;;;;5012733;28;20156;-84
2023/07/29 01:28:42;;;;;;;3.00;1.67;;;;;;;;;;5012287;28;20120;-84
2023/07/29 01:31:16;;;;;;;6.38;1.90;;;;;;;;;;5012702;28;20036;-83
2023/07/29 01:33:44;;;;;;;3.50;2.00;;;;;;;;;;5012520;28;20033;-84
2023/07/29 01:36:14;;;;;;;2.88;1.60;;;;;;;;;;5012764;28;20380;-83
2023/07/29 01:38:40;;;;;;;3.67;1.52;;;;;;;;;;5012939;28;20030;-83
2023/07/29 01:41:07;;;;;;;7.13;2.20;;;;;;;;;;4996433;28;20025;-83
2023/07/29 01:43:33;;;;;;;6.53;1.80;;;;;;;;;;5028473;28;20465;-83
2023/07/29 01:45:58;;;;;;;6.03;1.95;;;;;;;;;;5012634;28;20033;-83
2023/07/29 01:48:24;;;;;;;3.05;1.80;;;;;;;;;;5028968;28;20041;-83
2023/07/29 01:50:50;;;;;;;4.38;1.70;;;;;;;;;;4996060;28;20109;-83
2023/07/29 01:53:15;;;;;;;4.28;1.80;;;;;;;;;;5012597;28;20331;-83
2023/07/29 01:55:41;;;;;;;3.55;1.75;;;;;;;;;;5011645;28;20477;-84
2023/07/29 01:58:06;;;;;;;6.97;1.70;;;;;;;;;;4995771;28;20041;-83
2023/07/29 02:00:35;;;;;;;3.63;1.80;;;;;;;;;;5012219;28;20026;-83
2023/07/29 02:03:00;;;;;;;4.00;1.50;;;;;;;;;;5012201;28;20038;-83
2023/07/29 02:05:25;;;;;;;2.70;1.60;;;;;;;;;;4995816;28;20076;-83
2023/07/29 02:07:52;;;;;;;2.55;1.70;;;;;;;;;;5012266;28;20042;-83
2023/07/29 02:10:17;;;;;;;3.72;1.67;;;;;;;;;;5011822;28;20488;-83
2023/07/29 02:12:43;;;;;;;3.13;1.90;;;;;;;;;;5011840;28;20049;-84
2023/07/29 02:15:09;;;;;;;3.17;1.63;;;;;;;;;;4996295;28;20083;-84
2023/07/29 02:17:35;;;;;;;3.70;1.70;;;;;;;;;;5013809;28;20030;-83
2023/07/29 02:20:00;;;;;;;2.50;1.55;;;;;;;;;;5012843;28;20111;-83
2023/07/29 02:22:26;;;;;;;3.33;1.83;;;;;;;;;;5012757;28;20041;-84
2023/07/29 02:24:52;;;;;;;4.38;1.83;;;;;;;;;;4994824;28;20034;-83
2023/07/29 02:27:17;;;;;;;4.13;1.70;;;;;;;;;;5027444;28;20044;-83
2023/07/29 02:29:43;;;;;;;3.88;1.80;;;;;;;;;;5011564;28;20072;-83
2023/07/29 02:32:08;;;;;;;4.40;1.65;;;;;;;;;;5013019;28;20388;-82
2023/07/29 02:34:34;;;;;;;5.25;1.63;;;;;;;;;;4999917;28;20022;-84
2023/07/29 02:37:00;;;;;;;4.10;1.88;;;;;;;;;;5012159;28;20033;-83
2023/07/29 02:39:25;;;;;;;4.22;1.67;;;;;;;;;;5011744;28;20542;-83
2023/07/29 02:41:52;;;;;;;2.88;1.98;;;;;;;;;;5012009;28;20064;-84
2023/07/29 02:44:17;;;;;;;2.75;1.63;;;;;;;;;;5002437;28;20096;-84
2023/07/29 02:46:43;;;;;;;4.68;2.58;;;;;;;;;;5012827;28;20034;-83
2023/07/29 02:49:08;;;;;;;3.78;2.17;;;;;;;;;;5010760;28;20067;-83
2023/07/29 02:51:34;;;;;;;4.47;2.25;;;;;;;;;;5011264;28;20409;-83
2023/07/29 02:54:00;;;;;;;4.72;1.83;;;;;;;;;;5012275;28;20022;-83
2023/07/29 02:56:25;;;;;;;3.58;1.60;;;;;;;;;;5011612;28;20040;-84
2023/07/29 02:58:54;;;;;;;3.10;1.90;;;;;;;;;;5011264;28;20029;-85
2023/07/29 03:01:19;;;;;;;5.57;1.60;;;;;;;;;;5011480;28;20025;-84
2023/07/29 03:03:45;;;;;;;3.03;2.10;;;;;;;;;;5027668;28;20773;-84
2023/07/29 03:06:13;;;;;;;4.57;2.30;;;;;;;;;;5027763;28;20026;-84
2023/07/29 03:08:39;;;;;;;4.25;2.20;;;;;;;;;;4996383;28;20044;-84
2023/07/29 03:11:06;;;;;;;3.75;1.83;;;;;;;;;;5013117;28;20042;-84
2023/07/29 03:13:31;;;;;;;3.45;1.65;;;;;;;;;;4997771;28;20025;-84
2023/07/29 03:16:10;;;;;;;6.38;1.98;;;;;;;;;;5030254;28;20392;-84
2023/07/29 03:18:37;;;;;;;4.38;2.00;;;;;;;;;;4995460;28;20029;-84
2023/07/29 03:21:03;;;;;;;5.70;1.80;;;;;;;;;;5012670;28;20032;-84
2023/07/29 03:23:29;;;;;;;3.50;2.08;;;;;;;;;;4991278;28;20556;-84
2023/07/29 03:25:58;;;;;;;3.17;2.05;;;;;;;;;;5023553;28;20120;-84
2023/07/29 03:28:25;;;;;;;3.90;2.15;;;;;;;;;;5007438;28;20417;-84
2023/07/29 03:30:50;;;;;;;4.82;1.98;;;;;;;;;;5011114;28;20030;-84
2023/07/29 03:33:16;;;;;;;4.65;2.10;;;;;;;;;;5010792;28;20184;-84
2023/07/29 03:35:44;;;;;;;4.40;2.05;;;;;;;;;;4994779;28;20122;-84
2023/07/29 03:38:10;;;;;;;3.63;1.90;;;;;;;;;;5027446;28;20065;-85
2023/07/29 03:40:35;;;;;;;3.30;2.10;;;;;;;;;;5011101;28;20030;-84
2023/07/29 03:43:00;;;;;;;4.10;1.70;;;;;;;;;;5020047;28;20030;-84
2023/07/29 03:45:26;;;;;;;5.47;1.80;;;;;;;;;;5012476;28;20026;-84
2023/07/29 03:47:51;;;;;;;4.28;1.83;;;;;;;;;;5019539;28;20057;-84
2023/07/29 03:50:17;;;;;;;3.47;1.90;;;;;;;;;;4994081;28;20092;-84
2023/07/29 03:52:42;;;;;;;2.60;1.80;;;;;;;;;;5012730;28;20042;-84
2023/07/29 03:55:08;;;;;;;3.38;2.00;;;;;;;;;;5010620;28;20072;-84
2023/07/29 03:57:34;;;;;;;3.17;1.70;;;;;;;;;;5027424;28;20107;-84
2023/07/29 03:59:59;;;;;;;4.13;1.83;;;;;;;;;;5010642;28;20030;-85
2023/07/29 04:02:24;;;;;;;2.95;1.80;;;;;;;;;;5010933;28;20041;-85
2023/07/29 04:04:50;;;;;;;3.88;2.55;;;;;;;;;;5010576;28;20021;-83
2023/07/29 04:07:16;;;;;;;5.35;2.55;;;;;;;;;;5011448;28;20034;-85
2023/07/29 04:09:43;;;;;;;5.30;2.20;;;;;;;;;;5009675;28;20030;-84
2023/07/29 04:12:09;;;;;;;3.60;1.80;;;;;;;;;;5010782;28;20424;-85
2023/07/29 04:14:35;;;;;;;4.10;1.98;;;;;;;;;;5026927;28;20038;-85
2023/07/29 04:17:01;;;;;;;4.30;2.40;;;;;;;;;;5011995;28;20044;-85
2023/07/29 04:19:26;;;;;;;3.10;1.80;;;;;;;;;;4995076;28;20384;-84
2023/07/29 04:21:52;;;;;;;3.70;1.90;;;;;;;;;;5015555;28;20034;-85
2023/07/29 04:24:17;;;;;;;4.40;1.80;;;;;;;;;;5013878;28;20412;-84
2023/07/29 04:26:43;;;;;;;5.53;1.90;;;;;;;;;;5007498;28;20034;-86
2023/07/29 04:29:09;;;;;;;3.17;1.95;;;;;;;;;;4997769;28;20034;-85
2023/07/29 04:31:34;;;;;;;3.47;1.90;;;;;;;;;;5012569;28;20034;-85
2023/07/29 04:33:59;;;;;;;4.70;1.98;;;;;;;;;;5015464;28;20492;-85
2023/07/29 04:36:25;;;;;;;6.35;1.70;;;;;;;;;;5027446;28;20033;-85
2023/07/29 04:38:50;;;;;;;4.72;2.25;;;;;;;;;;5013803;28;20036;-84
2023/07/29 04:41:16;;;;;;;3.85;1.90;;;;;;;;;;5013702;28;20029;-85
2023/07/29 04:43:41;;;;;;;3.55;1.90;;;;;;;;;;5030259;28;20041;-85
2023/07/29 04:46:08;;;;;;;4.95;2.25;;;;;;;;;;5013394;28;20473;-84
2023/07/29 04:48:33;;;;;;;5.35;1.90;;;;;;;;;;5013513;28;20068;-84
2023/07/29 04:50:59;;;;;;;6.18;1.98;;;;;;;;;;5017557;28;20458;-84
2023/07/29 04:53:25;;;;;;;3.08;1.88;;;;;;;;;;5013766;28;20040;-84
2023/07/29 04:55:50;;;;;;;3.40;1.90;;;;;;;;;;5012500;28;20477;-84
2023/07/29 04:58:15;;;;;;;3.88;1.70;;;;;;;;;;5014442;28;20485;-85
2023/07/29 05:00:41;;;;;;;3.45;1.77;;;;;;;;;;5029257;28;20548;-84
2023/07/29 05:03:07;;;;;;;2.28;1.70;;;;;;;;;;5012971;28;20033;-84
2023/07/29 05:05:33;;;;;;;4.95;1.80;;;;;;;;;;4996577;28;20048;-86
2023/07/29 05:07:59;;;;;;;3.53;2.10;;;;;;;;;;4993204;28;20149;-85
2023/07/29 05:10:25;;;;;;;5.70;2.13;;;;;;;;;;5009212;28;20053;-83
2023/07/29 05:12:50;;;;;;;6.20;1.98;;;;;;;;;;5012588;28;20504;-83
2023/07/29 05:15:16;;;;;;;4.13;1.95;;;;;;;;;;5014019;28;20026;-85
2023/07/29 05:17:41;;;;;;;4.28;1.88;;;;;;;;;;4993504;28;20037;-86
2023/07/29 05:20:07;;;;;;;3.35;1.90;;;;;;;;;;5012983;28;20401;-86
2023/07/29 05:22:32;;;;;;;7.63;1.98;;;;;;;;;;5011779;28;20029;-84
2023/07/29 05:24:58;;;;;;;2.92;1.77;;;;;;;;;;5024557;28;20041;-84
2023/07/29 05:27:23;;;;;;;2.95;1.75;;;;;;;;;;4996249;28;20022;-86
2023/07/29 05:29:49;;;;;;;3.85;2.10;;;;;;;;;;4999370;28;20033;-83
2023/07/29 05:32:14;;;;;;;5.07;2.08;;;;;;;;;;5011474;28;20390;-82
2023/07/29 05:34:41;;;;;;;5.50;2.20;;;;;;;;;;5010640;28;20022;-82
2023/07/29 05:37:06;;;;;;;3.85;2.03;;;;;;;;;;5011486;28;20026;-82
2023/07/29 05:39:33;;;;;;;6.55;2.28;;;;;;;;;;4991755;28;20085;-82
2023/07/29 05:41:58;;;;;;;3.58;2.03;;;;;;;;;;4998914;28;20061;-83
2023/07/29 05:44:24;;;;;;;5.78;1.80;;;;;;;;;;5011024;28;20817;-83
2023/07/29 05:46:50;;;;;;;6.70;1.80;;;;;;;;;;5011432;28;20076;-83
2023/07/29 05:49:15;;;;;;;4.88;1.95;;;;;;;;;;5010723;28;20471;-83
2023/07/29 05:51:41;;;;;;;2.95;1.70;;;;;;;;;;4994887;28;20468;-83
2023/07/29 05:54:07;;;;;;;5.43;1.80;;;;;;;;;;4994557;28;20032;-83
2023/07/29 05:56:33;;;;;;;3.00;1.55;;;;;;;;;;5011204;28;20435;-83
2023/07/29 05:58:58;;;;;;;3.50;2.10;;;;;;;;;;5010842;28;20029;-84
2023/07/29 06:01:23;;;;;;;3.42;1.77;;;;;;;;;;5011168;28;20029;-84
2023/07/29 06:03:49;;;;;;;5.10;1.77;;;;;;;;;;4994581;28;20030;-87
2023/07/29 06:06:15;;;;;;;3.63;1.90;;;;;;;;;;5009567;28;20156;-87
2023/07/29 06:08:41;;;;;;;3.85;1.70;;;;;;;;;;4996310;28;20049;-86
2023/07/29 06:11:06;;;;;;;5.32;1.95;;;;;;;;;;5000749;28;20026;-84
2023/07/29 06:13:32;;;;;;;3.42;2.05;;;;;;;;;;5010817;28;20054;-86
2023/07/29 06:15:57;;;;;;;4.25;2.00;;;;;;;;;;5011460;28;20044;-84
2023/07/29 06:18:24;;;;;;;5.80;2.10;;;;;;;;;;5011056;28;20563;-85
2023/07/29 06:20:49;;;;;;;7.47;1.90;;;;;;;;;;5006310;28;20041;-83
2023/07/29 06:23:15;;;;;;;5.60;1.70;;;;;;;;;;5005146;28;20038;-83
2023/07/29 06:25:40;;;;;;;3.88;1.63;;;;;;;;;;5011424;28;20030;-84
2023/07/29 06:28:06;;;;;;;8.00;1.77;;;;;;;;;;5010302;28;20516;-83
2023/07/29 06:30:31;;;;;;;5.93;1.80;;;;;;;;;;5010551;28;20061;-83
2023/07/29 06:32:57;;;;;;;4.32;1.80;;;;;;;;;;5026985;28;20116;-83
2023/07/29 06:35:23;;;;;;;5.95;1.90;;;;;;;;;;5011869;28;20033;-83
2023/07/29 06:37:49;;;;;;;3.88;1.70;;;;;;;;;;5010238;28;20033;-84
2023/07/29 06:40:14;;;;;;;4.10;1.67;;;;;;;;;;5011046;28;20029;-84
2023/07/29 06:42:40;;;;;;;6.97;1.70;;;;;;;;;;5006517;28;20492;-88
2023/07/29 06:45:06;;;;;;;5.68;1.80;;;;;;;;;;4978477;28;20026;-85
2023/07/29 06:47:32;;;;;;;7.35;2.70;;;;;;;;;;5011641;28;20037;-85
2023/07/29 06:49:57;;;;;;;3.10;1.80;;;;;;;;;;5011235;28;20531;-85
2023/07/29 06:52:23;;;;;;;3.17;1.77;;;;;;;;;;5023947;28;20038;-86
2023/07/29 06:54:48;;;;;;;5.07;1.80;;;;;;;;;;5010374;28;20105;-86
2023/07/29 06:57:14;;;;;;;6.35;2.10;;;;;;;;;;5003061;28;20029;-86
2023/07/29 06:59:39;;;;;;;4.45;1.55;;;;;;;;;;5013563;28;20509;-87
2023/07/29 07:02:06;;;;;;;5.07;1.83;;;;;;;;;;4994434;28;20176;-86
2023/07/29 07:04:31;;;;;;;4.57;2.10;;;;;;;;;;4995321;28;20084;-86
2023/07/29 07:06:57;;;;;;;3.60;2.10;;;;;;;;;;5011830;28;20042;-86
2023/07/29 07:09:22;;;;;;;4.32;1.95;;;;;;;;;;5011280;28;20029;-86
2023/07/29 07:11:48;;;;;;;3.92;1.90;;;;;;;;;;5011028;28;20108;-86
2023/07/29 07:14:13;;;;;;;5.55;2.20;;;;;;;;;;5009958;28;20132;-89
2023/07/29 07:16:41;;;;;;;6.88;2.30;;;;;;;;;;4992158;28;20031;-87
2023/07/29 07:19:06;;;;;;;4.85;1.80;;;;;;;;;;5010938;28;20067;-89
2023/07/29 07:21:32;;;;;;;3.65;2.13;;;;;;;;;;5012507;28;20499;-89
2023/07/29 07:23:58;;;;;;;5.13;2.00;;;;;;;;;;5027834;28;20026;-89
2023/07/29 07:26:23;;;;;;;3.63;2.17;;;;;;;;;;5007872;28;20026;-86
2023/07/29 07:28:49;;;;;;;5.18;2.10;;;;;;;;;;5011077;28;20481;-86
2023/07/29 07:31:16;;;;;;;3.33;1.90;;;;;;;;;;5011832;28;20433;-86
2023/07/29 07:33:41;;;;;;;4.78;2.20;;;;;;;;;;5012493;28;20034;-86
2023/07/29 07:36:07;;;;;;;4.00;1.80;;;;;;;;;;5012515;28;20041;-86
2023/07/29 07:38:32;;;;;;;2.83;1.83;;;;;;;;;;5027712;28;20060;-87
2023/07/29 07:40:58;;;;;;;4.78;2.22;;;;;;;;;;5027473;28;20033;-87
2023/07/29 07:43:23;;;;;;;5.18;2.00;;;;;;;;;;5011416;28;20037;-87
2023/07/29 07:45:49;;;;;;;5.55;1.70;;;;;;;;;;5026947;28;20030;-89
2023/07/29 07:48:16;;;;;;;3.40;1.92;;;;;;;;;;5012266;28;20034;-88
2023/07/29 07:50:42;;;;;;;5.28;2.30;;;;;;;;;;5026791;28;20033;-86
2023/07/29 07:53:07;;;;;;;5.18;2.67;;;;;;;;;;5011129;28;20465;-86
2023/07/29 07:55:33;;;;;;;7.78;2.92;;;;;;;;;;5014446;28;20080;-86
2023/07/29 07:57:58;;;;;;;6.68;1.90;;;;;;;;;;5014485;28;20072;-86
2023/07/29 08:00:23;;;;;;;3.92;1.85;;;;;;;;;;5015126;28;20088;-86
2023/07/29 08:02:49;;;;;;;3.67;1.95;;;;;;;;;;5015815;28;20369;-86
2023/07/29 08:05:14;;;;;;;3.13;1.67;;;;;;;;;;5017067;28;20032;-86
2023/07/29 08:07:40;;;;;;;7.10;1.83;;;;;;;;;;5008039;28;20033;-86
2023/07/29 08:10:06;;;;;;;3.83;1.73;;;;;;;;;;5015286;28;20030;-86
2023/07/29 08:12:32;;;;;;;7.40;1.95;;;;;;;;;;5013758;28;20098;-86
2023/07/29 08:14:57;;;;;;;4.18;1.63;;;;;;;;;;5013795;28;20061;-86
2023/07/29 08:17:23;;;;;;;4.78;1.73;;;;;;;;;;5015474;28;20022;-87
2023/07/29 08:19:49;;;;;;;3.58;1.90;;;;;;;;;;5015332;28;20064;-85
2023/07/29 08:22:14;;;;;;;4.70;1.90;;;;;;;;;;5013585;28;20025;-86
2023/07/29 08:24:39;;;;;;;5.05;2.03;;;;;;;;;;5013448;28;20040;-87
2023/07/29 08:27:05;;;;;;;5.20;1.90;;;;;;;;;;5014070;28;20037;-86
2023/07/29 08:29:31;;;;;;;2.85;1.83;;;;;;;;;;5013245;28;20057;-87
2023/07/29 08:31:56;;;;;;;3.03;1.77;;;;;;;;;;5013640;28;20088;-87
2023/07/29 08:34:22;;;;;;;4.28;1.67;;;;;;;;;;5019039;28;20172;-87
2023/07/29 08:36:47;;;;;;;3.70;1.83;;;;;;;;;;5015846;28;20084;-87
2023/07/29 08:39:13;;;;;;;3.28;1.60;;;;;;;;;;5015153;28;20096;-87
2023/07/29 08:42:04;;;;;;;4.78;1.60;;;;;;;;;;5030255;28;20104;-87
2023/07/29 08:44:31;;;;;;;4.53;1.60;;;;;;;;;;4993102;28;20070;-87
2023/07/29 08:46:57;;;;;;;4.95;1.63;;;;;;;;;;5013799;28;20492;-87
2023/07/29 08:49:25;;;;;;;4.40;1.77;;;;;;;;;;4997672;28;20040;-87
2023/07/29 08:51:51;;;;;;;3.45;1.50;;;;;;;;;;4996797;28;20038;-87
2023/07/29 08:54:16;;;;;;;5.50;1.80;;;;;;;;;;4997201;28;20052;-87
2023/07/29 08:56:42;;;;;;;5.15;1.88;;;;;;;;;;5013765;28;20048;-87
2023/07/29 08:59:13;;;;;;;5.70;1.90;;;;;;;;;;5030014;28;20033;-87
2023/07/29 09:01:39;;;;;;;3.65;1.70;;;;;;;;;;5029487;28;20025;-87
2023/07/29 09:04:04;;;;;;;4.28;1.70;;;;;;;;;;5013410;28;20510;-87
2023/07/29 09:06:30;;;;;;;5.03;1.70;;;;;;;;;;5012798;28;20497;-87
2023/07/29 09:08:56;;;;;;;2.90;1.80;;;;;;;;;;5014361;28;20033;-87
2023/07/29 09:11:22;;;;;;;4.47;1.75;;;;;;;;;;5014307;28;20038;-87
2023/07/29 09:13:47;;;;;;;3.97;1.65;;;;;;;;;;5030120;28;20045;-87
2023/07/29 09:16:13;;;;;;;2.75;1.63;;;;;;;;;;5014288;28;20042;-87
2023/07/29 09:18:38;;;;;;;2.97;1.67;;;;;;;;;;5014147;28;20376;-87
2023/07/29 09:21:04;;;;;;;3.63;1.70;;;;;;;;;;5014307;28;20084;-87
2023/07/29 09:23:38;;;;;;;3.63;1.95;;;;;;;;;;5029855;28;20167;-87
2023/07/29 09:26:03;;;;;;;5.50;2.05;;;;;;;;;;5027837;28;20057;-87
2023/07/29 09:28:32;;;;;;;3.45;1.55;;;;;;;;;;5029989;28;20057;-87
2023/07/29 09:30:57;;;;;;;3.67;1.42;;;;;;;;;;5026922;28;20080;-87
2023/07/29 09:33:25;;;;;;;3.75;1.73;;;;;;;;;;5012925;28;20053;-87
2023/07/29 09:35:50;;;;;;;5.10;1.85;;;;;;;;;;5013034;28;20034;-86
2023/07/29 09:38:16;;;;;;;4.00;1.70;;;;;;;;;;4996317;28;20396;-86
2023/07/29 09:40:42;;;;;;;5.28;2.00;;;;;;;;;;4995848;28;20116;-87
2023/07/29 09:43:08;;;;;;;2.80;1.70;;;;;;;;;;5013754;28;20065;-87
2023/07/29 09:45:35;;;;;;;2.53;1.83;;;;;;;;;;4995282;28;20835;-88
2023/07/29 09:48:00;;;;;;;2.97;1.48;;;;;;;;;;5028906;28;20722;-87
2023/07/29 09:50:26;;;;;;;3.88;1.70;;;;;;;;;;5028901;28;20041;-88
2023/07/29 09:52:52;;;;;;;4.72;1.67;;;;;;;;;;5024644;28;20030;-87
2023/07/29 09:55:18;;;;;;;5.90;1.88;;;;;;;;;;5011116;28;20038;-87
2023/07/29 09:57:44;;;;;;;4.30;1.83;;;;;;;;;;5012003;28;20469;-87
2023/07/29 10:00:11;;;;;;;5.00;1.90;;;;;;;;;;4995617;28;20084;-87
2023/07/29 10:02:43;;;;;;;2.67;1.70;;;;;;;;;;5008876;28;20072;-87
2023/07/29 10:05:08;;;;;;;2.80;1.65;;;;;;;;;;5002941;28;20052;-87
2023/07/29 10:07:37;;;;;;;2.90;1.70;;;;;;;;;;5012121;28;20018;-87
2023/07/29 10:10:03;;;;;;;3.20;1.40;;;;;;;;;;5028448;28;20128;-86
2023/07/29 10:12:30;;;;;;;5.78;1.58;;;;;;;;;;5027516;28;20056;-87
2023/07/29 10:14:55;;;;;;;4.47;1.40;;;;;;;;;;5011809;28;20037;-87
2023/07/29 10:17:21;;;;;;;2.70;1.65;;;;;;;;;;4994042;28;20480;-87
2023/07/29 10:19:46;;;;;;;2.55;1.45;;;;;;;;;;5011902;28;20038;-86
2023/07/29 10:22:12;;;;;;;3.65;1.63;;;;;;;;;;5011452;28;20436;-85
2023/07/29 10:24:39;;;;;;;4.28;1.63;;;;;;;;;;4995683;28;20038;-86
2023/07/29 10:27:04;;;;;;;3.63;2.00;;;;;;;;;;4992018;28;20058;-86
2023/07/29 10:29:34;;;;;;;4.78;2.53;;;;;;;;;;5010372;28;20072;-86
2023/07/29 10:32:01;;;;;;;5.10;1.90;;;;;;;;;;5011406;28;20030;-86
2023/07/29 10:34:26;;;;;;;6.22;1.85;;;;;;;;;;4995396;28;20030;-86
2023/07/29 10:36:52;;;;;;;3.63;1.83;;;;;;;;;;5012990;28;20068;-86
2023/07/29 10:39:18;;;;;;;5.57;2.00;;;;;;;;;;4995140;28;20489;-86
2023/07/29 10:42:09;;;;;;;3.25;1.67;;;;;;;;;;5009540;28;20030;-86
2023/07/29 10:44:51;;;;;;;3.30;1.73;;;;;;;;;;5007902;28;20102;-87
2023/07/29 10:47:27;;;;;;;4.32;1.65;;;;;;;;;;5009682;28;20134;-86
2023/07/29 10:49:56;;;;;;;5.10;1.50;;;;;;;;;;5019683;28;20153;-86
2023/07/29 10:52:37;;;;;;;6.53;2.10;;;;;;;;;;5027501;28;20096;-86
2023/07/29 10:55:03;;;;;;;5.18;1.60;;;;;;;;;;5012323;28;20466;-87
2023/07/29 10:57:40;;;;;;;5.78;1.67;;;;;;;;;;5012648;28;20021;-85
2023/07/29 11:00:06;;;;;;;6.05;1.58;;;;;;;;;;5012522;28;20038;-86
2023/07/29 11:02:35;;;;;;;2.88;1.63;;;;;;;;;;5012259;28;20034;-86
2023/07/29 11:05:04;;;;;;;4.32;1.20;;;;;;;;;;5012439;28;20034;-86
2023/07/29 11:07:30;;;;;;;4.03;1.35;;;;;;;;;;5012563;28;20066;-86
2023/07/29 11:09:56;;;;;;;6.55;1.50;;;;;;;;;;5012456;28;20057;-86
2023/07/29 11:12:34;;;;;;;4.60;1.52;;;;;;;;;;5012506;28;20460;-85
2023/07/29 11:15:00;;;;;;;3.97;2.40;;;;;;;;;;5012097;28;20088;-85
2023/07/29 11:17:26;;;;;;;5.45;1.40;;;;;;;;;;5006767;28;20026;-85
2023/07/29 11:19:51;;;;;;;3.40;1.50;;;;;;;;;;4999730;28;20034;-85
2023/07/29 11:22:17;;;;;;;2.17;1.17;;;;;;;;;;5010934;28;20541;-85
2023/07/29 11:24:42;;;;;;;2.97;1.30;;;;;;;;;;5011174;28;20120;-85
2023/07/29 11:27:11;;;;;;;3.53;1.10;;;;;;;;;;5011419;28;20032;-86
2023/07/29 11:29:36;;;;;;;4.43;1.65;;;;;;;;;;5006268;28;20485;-86
2023/07/29 11:32:02;;;;;;;4.63;1.45;;;;;;;;;;5015588;28;20030;-86
2023/07/29 11:34:34;;;;;;;3.63;1.40;;;;;;;;;;5011770;28;20037;-86
2023/07/29 11:37:00;;;;;;;2.70;1.38;;;;;;;;;;5027781;28;20038;-86
2023/07/29 11:39:26;;;;;;;5.18;2.00;;;;;;;;;;5014948;28;20049;-86
2023/07/29 11:41:51;;;;;;;3.90;1.40;;;;;;;;;;5014613;28;20057;-85
2023/07/29 11:44:17;;;;;;;2.78;1.30;;;;;;;;;;5014808;28;20182;-85
2023/07/29 11:46:42;;;;;;;3.53;1.20;;;;;;;;;;5015008;28;20042;-85
2023/07/29 11:49:08;;;;;;;2.90;1.30;;;;;;;;;;5016098;28;20428;-85
2023/07/29 11:51:33;;;;;;;3.08;1.10;;;;;;;;;;5014700;28;20026;-85
2023/07/29 11:53:59;;;;;;;4.75;1.33;;;;;;;;;;4995201;28;20022;-86
2023/07/29 11:56:24;;;;;;;3.90;1.20;;;;;;;;;;5026520;28;20048;-86
2023/07/29 11:58:50;;;;;;;5.03;1.52;;;;;;;;;;5014549;28;20033;-85
2023/07/29 12:01:15;;;;;;;2.28;1.30;;;;;;;;;;5015703;28;20030;-86
2023/07/29 12:03:41;;;;;;;2.90;1.55;;;;;;;;;;5014419;28;20472;-86
2023/07/29 12:06:06;;;;;;;3.15;1.30;;;;;;;;;;5030555;28;20037;-85
2023/07/29 12:08:32;;;;;;;6.82;1.50;;;;;;;;;;5030599;28;20038;-86
2023/07/29 12:10:57;;;;;;;3.53;1.40;;;;;;;;;;5030546;28;20069;-85
2023/07/29 12:13:26;;;;;;;2.53;1.38;;;;;;;;;;5030596;28;20046;-86
2023/07/29 12:15:51;;;;;;;2.75;1.48;;;;;;;;;;5006659;28;20058;-86
2023/07/29 12:18:17;;;;;;;4.35;1.40;;;;;;;;;;5003577;28;20152;-86
2023/07/29 12:20:42;;;;;;;2.42;1.30;;;;;;;;;;5014403;28;20045;-86
2023/07/29 12:23:08;;;;;;;3.33;1.70;;;;;;;;;;5004235;28;20032;-85
2023/07/29 12:25:34;;;;;;;3.65;1.30;;;;;;;;;;4998370;28;20042;-87
2023/07/29 12:28:03;;;;;;;2.08;1.10;;;;;;;;;;5013809;28;20025;-88
2023/07/29 12:30:29;;;;;;;5.05;1.30;;;;;;;;;;4998533;28;20499;-86
2023/07/29 12:32:54;;;;;;;3.70;1.40;;;;;;;;;;5015085;28;20117;-87
2023/07/29 12:35:20;;;;;;;1.65;1.08;;;;;;;;;;5008570;28;20405;-87
2023/07/29 12:37:45;;;;;;;3.28;1.40;;;;;;;;;;5011908;28;20022;-88
2023/07/29 12:40:21;;;;;;;2.60;1.30;;;;;;;;;;5007931;28;20041;-86
2023/07/29 12:42:47;;;;;;;3.35;1.20;;;;;;;;;;5008312;28;20113;-87
2023/07/29 12:45:13;;;;;;;4.68;1.50;;;;;;;;;;5002807;28;20123;-87
2023/07/29 12:47:39;;;;;;;1.92;1.10;;;;;;;;;;5008971;28;20091;-87
2023/07/29 12:50:04;;;;;;;2.30;1.50;;;;;;;;;;5003641;28;20120;-87
2023/07/29 12:52:30;;;;;;;3.85;1.20;;;;;;;;;;5013430;28;20042;-86
2023/07/29 12:54:55;;;;;;;2.47;1.20;;;;;;;;;;5015010;28;20029;-87
2023/07/29 12:57:21;;;;;;;2.10;1.55;;;;;;;;;;5014385;28;20033;-87
2023/07/29 12:59:46;;;;;;;3.65;1.83;;;;;;;;;;5013790;28;20425;-86
2023/07/29 13:02:12;;;;;;;3.53;1.48;;;;;;;;;;5013675;28;20030;-87
2023/07/29 13:04:37;;;;;;;1.80;1.10;;;;;;;;;;5014356;28;20025;-87
2023/07/29 13:07:03;;;;;;;4.28;1.50;;;;;;;;;;4996861;28;20552;-87
2023/07/29 13:09:28;;;;;;;3.65;1.40;;;;;;;;;;5013035;28;20493;-87
2023/07/29 13:11:54;;;;;;;3.53;1.50;;;;;;;;;;5013617;28;20501;-87
2023/07/29 13:14:19;;;;;;;4.05;1.38;;;;;;;;;;4996756;28;20029;-87
2023/07/29 13:16:45;;;;;;;2.95;1.30;;;;;;;;;;5013018;28;20030;-86
2023/07/29 13:19:10;;;;;;;4.28;1.50;;;;;;;;;;5007539;28;20022;-86
2023/07/29 13:21:36;;;;;;;4.03;1.50;;;;;;;;;;4985591;28;20469;-86
2023/07/29 13:24:01;;;;;;;3.00;1.20;;;;;;;;;;5011695;28;20033;-86
2023/07/29 13:26:27;;;;;;;3.70;1.48;;;;;;;;;;5011533;28;20033;-86
2023/07/29 13:28:52;;;;;;;2.45;1.20;;;;;;;;;;5028470;28;20163;-86
2023/07/29 13:31:17;;;;;;;4.30;1.20;;;;;;;;;;5027172;28;20168;-86
2023/07/29 13:33:43;;;;;;;2.40;1.23;;;;;;;;;;5013610;28;20030;-85
2023/07/29 13:36:09;;;;;;;4.53;1.23;;;;;;;;;;5010562;28;20022;-85
2023/07/29 13:38:34;;;;;;;2.85;1.10;;;;;;;;;;5013865;28;20025;-85
2023/07/29 13:41:00;;;;;;;2.53;1.20;;;;;;;;;;5011099;28;20041;-85
2023/07/29 13:43:25;;;;;;;2.03;1.25;;;;;;;;;;5012981;28;20029;-86
2023/07/29 13:45:51;;;;;;;4.00;1.20;;;;;;;;;;5014011;28;20029;-85
2023/07/29 13:48:16;;;;;;;3.50;1.10;;;;;;;;;;5013670;28;20068;-85
2023/07/29 13:50:43;;;;;;;2.97;1.33;;;;;;;;;;5013428;28;20464;-85
2023/07/29 13:53:09;;;;;;;2.88;1.30;;;;;;;;;;4995308;28;20033;-85
2023/07/29 13:55:34;;;;;;;3.17;1.40;;;;;;;;;;5013095;28;20029;-85
2023/07/29 13:57:59;;;;;;;4.30;1.30;;;;;;;;;;5012333;28;20075;-86
2023/07/29 14:00:25;;;;;;;2.90;1.50;;;;;;;;;;5013437;28;20088;-85
2023/07/29 14:02:50;;;;;;;2.90;1.30;;;;;;;;;;5012644;28;20061;-85
2023/07/29 14:05:16;;;;;;;2.78;1.20;;;;;;;;;;5012904;28;20038;-85
2023/07/29 14:07:41;;;;;;;2.22;1.20;;;;;;;;;;5005562;28;20762;-86
2023/07/29 14:10:07;;;;;;;3.00;1.33;;;;;;;;;;5011494;28;20547;-87
2023/07/29 14:12:33;;;;;;;5.03;1.90;;;;;;;;;;5011737;28;20058;-87
2023/07/29 14:14:59;;;;;;;5.38;1.60;;;;;;;;;;5012482;28;20030;-87
2023/07/29 14:17:24;;;;;;;3.13;1.42;;;;;;;;;;5012197;28;20057;-86
2023/07/29 14:19:50;;;;;;;2.97;1.50;;;;;;;;;;5011866;28;20124;-87
2023/07/29 14:22:15;;;;;;;4.32;1.50;;;;;;;;;;5007192;28;20072;-86
2023/07/29 14:24:41;;;;;;;3.05;1.48;;;;;;;;;;5012023;28;20041;-86
2023/07/29 14:27:06;;;;;;;2.63;1.40;;;;;;;;;;5006999;28;20109;-86
2023/07/29 14:29:32;;;;;;;3.08;1.20;;;;;;;;;;5010969;28;20030;-86
2023/07/29 14:31:57;;;;;;;1.80;1.20;;;;;;;;;;4995345;28;20037;-87
2023/07/29 14:34:23;;;;;;;2.95;1.48;;;;;;;;;;4993965;28;20497;-87
2023/07/29 14:36:48;;;;;;;3.30;1.80;;;;;;;;;;5010634;28;20022;-86